sensor_id;sensor_type;location;lat;lon;timestamp;P1;durP1;ratioP1;P2;durP2;ratioP2
6093;SDS011;19964;42.060;24.700;2024-03-07T00:02:09;60.73;;;33.07;;
6093;SDS011;19964;42.060;24.700;2024-03-07T00:04:36;59.87;;;32.13;;
6093;SDS011;19964;42.060;24.700;2024-03-07T00:07:03;56.87;;;31.13;;
6093;SDS011;19964;42.060;24.700;2024-03-07T00:09:32;64.83;;;33.57;;
6093;SDS011;19964;42.060;24.700;2024-03-07T00:11:59;72.30;;;36.80;;
6093;SDS011;19964;42.060;24.700;2024-03-07T00:14:26;76.73;;;39.27;;
6093;SDS011;19964;42.060;24.700;2024-03-07T00:16:55;80.57;;;39.53;;
6093;SDS011;19964;42.060;24.700;2024-03-07T00:19:24;84.93;;;40.90;;
6093;SDS011;19964;42.060;24.700;2024-03-07T00:21:52;80.73;;;39.53;;
6093;SDS011;19964;42.060;24.700;2024-03-07T00:24:19;85.43;;;39.27;;
6093;SDS011;19964;42.060;24.700;2024-03-07T00:26:46;84.83;;;38.90;;
6093;SDS011;19964;42.060;24.700;2024-03-07T00:29:15;76.87;;;38.80;;
6093;SDS011;19964;42.060;24.700;2024-03-07T00:31:43;75.83;;;37.90;;
6093;SDS011;19964;42.060;24.700;2024-03-07T00:34:12;83.33;;;38.80;;
6093;SDS011;19964;42.060;24.700;2024-03-07T00:36:41;94.20;;;40.80;;
6093;SDS011;19964;42.060;24.700;2024-03-07T00:39:08;83.93;;;40.07;;
6093;SDS011;19964;42.060;24.700;2024-03-07T00:41:37;77.00;;;38.43;;
6093;SDS011;19964;42.060;24.700;2024-03-07T00:44:04;86.73;;;39.13;;
6093;SDS011;19964;42.060;24.700;2024-03-07T00:46:34;86.53;;;39.80;;
6093;SDS011;19964;42.060;24.700;2024-03-07T00:49:01;86.23;;;39.93;;
6093;SDS011;19964;42.060;24.700;2024-03-07T00:51:29;86.57;;;40.53;;
6093;SDS011;19964;42.060;24.700;2024-03-07T00:53:56;88.40;;;40.37;;
6093;SDS011;19964;42.060;24.700;2024-03-07T00:56:24;82.77;;;38.87;;
6093;SDS011;19964;42.060;24.700;2024-03-07T00:58:51;84.50;;;39.30;;
6093;SDS011;19964;42.060;24.700;2024-03-07T01:01:18;87.03;;;40.23;;
6093;SDS011;19964;42.060;24.700;2024-03-07T01:03:45;85.03;;;38.73;;
6093;SDS011;19964;42.060;24.700;2024-03-07T01:06:12;117.17;;;42.30;;
6093;SDS011;19964;42.060;24.700;2024-03-07T01:08:40;92.27;;;43.27;;
6093;SDS011;19964;42.060;24.700;2024-03-07T01:11:07;114.50;;;45.43;;
6093;SDS011;19964;42.060;24.700;2024-03-07T01:13:37;119.43;;;45.67;;
6093;SDS011;19964;42.060;24.700;2024-03-07T01:16:05;124.73;;;47.97;;
6093;SDS011;19964;42.060;24.700;2024-03-07T01:18:32;136.33;;;47.97;;
6093;SDS011;19964;42.060;24.700;2024-03-07T01:20:59;125.47;;;47.57;;
6093;SDS011;19964;42.060;24.700;2024-03-07T01:23:26;143.67;;;49.83;;
6093;SDS011;19964;42.060;24.700;2024-03-07T01:25:56;130.57;;;47.33;;
6093;SDS011;19964;42.060;24.700;2024-03-07T01:28:23;136.67;;;49.43;;
6093;SDS011;19964;42.060;24.700;2024-03-07T01:30:51;135.60;;;49.13;;
6093;SDS011;19964;42.060;24.700;2024-03-07T01:33:19;123.90;;;48.00;;
6093;SDS011;19964;42.060;24.700;2024-03-07T01:35:46;132.50;;;51.70;;
6093;SDS011;19964;42.060;24.700;2024-03-07T01:38:13;128.27;;;47.43;;
6093;SDS011;19964;42.060;24.700;2024-03-07T01:40:40;153.17;;;50.43;;
6093;SDS011;19964;42.060;24.700;2024-03-07T01:43:09;140.63;;;51.40;;
6093;SDS011;19964;42.060;24.700;2024-03-07T01:45:37;144.83;;;51.97;;
6093;SDS011;19964;42.060;24.700;2024-03-07T01:48:04;190.93;;;53.17;;
6093;SDS011;19964;42.060;24.700;2024-03-07T01:50:32;251.53;;;54.17;;
6093;SDS011;19964;42.060;24.700;2024-03-07T01:52:59;135.43;;;50.23;;
6093;SDS011;19964;42.060;24.700;2024-03-07T01:55:27;139.53;;;50.23;;
6093;SDS011;19964;42.060;24.700;2024-03-07T01:57:55;301.90;;;53.23;;
6093;SDS011;19964;42.060;24.700;2024-03-07T02:00:26;137.93;;;49.57;;
6093;SDS011;19964;42.060;24.700;2024-03-07T02:02:53;122.37;;;47.93;;
6093;SDS011;19964;42.060;24.700;2024-03-07T02:05:20;148.60;;;48.03;;
6093;SDS011;19964;42.060;24.700;2024-03-07T02:07:47;132.20;;;48.60;;
6093;SDS011;19964;42.060;24.700;2024-03-07T02:10:14;160.87;;;48.40;;
6093;SDS011;19964;42.060;24.700;2024-03-07T02:12:42;153.70;;;48.97;;
6093;SDS011;19964;42.060;24.700;2024-03-07T02:15:10;339.47;;;56.40;;
6093;SDS011;19964;42.060;24.700;2024-03-07T02:17:40;146.67;;;50.00;;
6093;SDS011;19964;42.060;24.700;2024-03-07T02:20:08;162.83;;;52.77;;
6093;SDS011;19964;42.060;24.700;2024-03-07T02:22:39;289.53;;;55.67;;
6093;SDS011;19964;42.060;24.700;2024-03-07T02:25:06;165.40;;;52.73;;
6093;SDS011;19964;42.060;24.700;2024-03-07T02:27:35;298.60;;;56.97;;
6093;SDS011;19964;42.060;24.700;2024-03-07T02:30:03;161.43;;;50.13;;
6093;SDS011;19964;42.060;24.700;2024-03-07T02:32:33;159.33;;;50.20;;
6093;SDS011;19964;42.060;24.700;2024-03-07T02:35:02;135.70;;;45.37;;
6093;SDS011;19964;42.060;24.700;2024-03-07T02:37:30;91.60;;;41.47;;
6093;SDS011;19964;42.060;24.700;2024-03-07T02:39:58;112.80;;;42.17;;
6093;SDS011;19964;42.060;24.700;2024-03-07T02:42:25;103.23;;;40.63;;
6093;SDS011;19964;42.060;24.700;2024-03-07T02:44:52;105.33;;;40.93;;
6093;SDS011;19964;42.060;24.700;2024-03-07T02:47:19;95.10;;;39.63;;
6093;SDS011;19964;42.060;24.700;2024-03-07T02:49:48;104.00;;;41.00;;
6093;SDS011;19964;42.060;24.700;2024-03-07T02:52:15;108.93;;;44.37;;
6093;SDS011;19964;42.060;24.700;2024-03-07T02:54:42;108.67;;;39.97;;
6093;SDS011;19964;42.060;24.700;2024-03-07T02:57:11;99.67;;;38.80;;
6093;SDS011;19964;42.060;24.700;2024-03-07T02:59:38;101.50;;;42.37;;
6093;SDS011;19964;42.060;24.700;2024-03-07T03:02:05;114.27;;;43.03;;
6093;SDS011;19964;42.060;24.700;2024-03-07T03:04:32;109.97;;;41.60;;
6093;SDS011;19964;42.060;24.700;2024-03-07T03:06:59;108.97;;;43.53;;
6093;SDS011;19964;42.060;24.700;2024-03-07T03:09:26;113.23;;;42.93;;
6093;SDS011;19964;42.060;24.700;2024-03-07T03:11:53;109.50;;;42.57;;
6093;SDS011;19964;42.060;24.700;2024-03-07T03:14:21;108.83;;;41.90;;
6093;SDS011;19964;42.060;24.700;2024-03-07T03:16:48;97.30;;;40.83;;
6093;SDS011;19964;42.060;24.700;2024-03-07T03:19:15;112.67;;;41.27;;
6093;SDS011;19964;42.060;24.700;2024-03-07T03:21:42;94.43;;;39.30;;
6093;SDS011;19964;42.060;24.700;2024-03-07T03:24:09;104.03;;;40.13;;
6093;SDS011;19964;42.060;24.700;2024-03-07T03:26:36;115.63;;;40.90;;
6093;SDS011;19964;42.060;24.700;2024-03-07T03:29:03;110.83;;;39.27;;
6093;SDS011;19964;42.060;24.700;2024-03-07T03:31:32;117.63;;;41.73;;
6093;SDS011;19964;42.060;24.700;2024-03-07T03:34:00;109.10;;;41.47;;
6093;SDS011;19964;42.060;24.700;2024-03-07T03:36:27;101.03;;;40.40;;
6093;SDS011;19964;42.060;24.700;2024-03-07T03:38:54;94.77;;;38.30;;
6093;SDS011;19964;42.060;24.700;2024-03-07T03:41:21;118.17;;;40.67;;
6093;SDS011;19964;42.060;24.700;2024-03-07T03:43:48;98.50;;;40.33;;
6093;SDS011;19964;42.060;24.700;2024-03-07T03:46:15;102.03;;;38.30;;
6093;SDS011;19964;42.060;24.700;2024-03-07T03:48:44;160.07;;;42.03;;
6093;SDS011;19964;42.060;24.700;2024-03-07T03:51:11;106.03;;;41.63;;
6093;SDS011;19964;42.060;24.700;2024-03-07T03:53:40;122.90;;;41.13;;
6093;SDS011;19964;42.060;24.700;2024-03-07T03:56:10;124.17;;;41.33;;
6093;SDS011;19964;42.060;24.700;2024-03-07T03:58:39;238.43;;;43.63;;
6093;SDS011;19964;42.060;24.700;2024-03-07T04:01:06;116.73;;;41.40;;
6093;SDS011;19964;42.060;24.700;2024-03-07T04:03:38;155.47;;;44.07;;
6093;SDS011;19964;42.060;24.700;2024-03-07T04:06:06;115.23;;;41.53;;
6093;SDS011;19964;42.060;24.700;2024-03-07T04:08:33;129.03;;;43.10;;
6093;SDS011;19964;42.060;24.700;2024-03-07T04:11:02;135.63;;;42.87;;
6093;SDS011;19964;42.060;24.700;2024-03-07T04:13:30;144.00;;;41.97;;
6093;SDS011;19964;42.060;24.700;2024-03-07T04:15:57;202.90;;;41.43;;
6093;SDS011;19964;42.060;24.700;2024-03-07T04:18:24;190.13;;;43.00;;
6093;SDS011;19964;42.060;24.700;2024-03-07T04:20:51;136.53;;;39.90;;
6093;SDS011;19964;42.060;24.700;2024-03-07T04:23:20;309.27;;;49.67;;
6093;SDS011;19964;42.060;24.700;2024-03-07T04:25:48;222.83;;;46.60;;
6093;SDS011;19964;42.060;24.700;2024-03-07T04:28:15;281.27;;;50.50;;
6093;SDS011;19964;42.060;24.700;2024-03-07T04:30:42;162.17;;;45.10;;
6093;SDS011;19964;42.060;24.700;2024-03-07T04:33:10;163.33;;;44.13;;
6093;SDS011;19964;42.060;24.700;2024-03-07T04:35:37;154.17;;;45.20;;
6093;SDS011;19964;42.060;24.700;2024-03-07T04:38:03;132.63;;;42.97;;
6093;SDS011;19964;42.060;24.700;2024-03-07T04:40:36;133.70;;;48.77;;
6093;SDS011;19964;42.060;24.700;2024-03-07T04:43:04;170.87;;;41.97;;
6093;SDS011;19964;42.060;24.700;2024-03-07T04:45:31;144.70;;;41.47;;
6093;SDS011;19964;42.060;24.700;2024-03-07T04:47:57;194.67;;;46.07;;
6093;SDS011;19964;42.060;24.700;2024-03-07T04:50:24;143.30;;;44.10;;
6093;SDS011;19964;42.060;24.700;2024-03-07T04:52:51;135.60;;;41.97;;
6093;SDS011;19964;42.060;24.700;2024-03-07T04:55:18;134.73;;;39.87;;
6093;SDS011;19964;42.060;24.700;2024-03-07T04:57:47;94.27;;;37.77;;
6093;SDS011;19964;42.060;24.700;2024-03-07T05:00:14;93.70;;;37.60;;
6093;SDS011;19964;42.060;24.700;2024-03-07T05:02:45;110.17;;;36.23;;
6093;SDS011;19964;42.060;24.700;2024-03-07T05:05:14;89.63;;;36.57;;
6093;SDS011;19964;42.060;24.700;2024-03-07T05:07:47;115.33;;;36.83;;
6093;SDS011;19964;42.060;24.700;2024-03-07T05:10:14;127.43;;;39.50;;
6093;SDS011;19964;42.060;24.700;2024-03-07T05:12:42;105.90;;;39.57;;
6093;SDS011;19964;42.060;24.700;2024-03-07T05:15:11;105.90;;;37.07;;
6093;SDS011;19964;42.060;24.700;2024-03-07T05:17:38;108.50;;;37.90;;
6093;SDS011;19964;42.060;24.700;2024-03-07T05:20:08;98.00;;;35.43;;
6093;SDS011;19964;42.060;24.700;2024-03-07T05:22:37;95.70;;;35.10;;
6093;SDS011;19964;42.060;24.700;2024-03-07T05:25:06;82.50;;;33.80;;
6093;SDS011;19964;42.060;24.700;2024-03-07T05:27:33;84.77;;;33.80;;
6093;SDS011;19964;42.060;24.700;2024-03-07T05:30:01;84.60;;;35.27;;
6093;SDS011;19964;42.060;24.700;2024-03-07T05:32:32;77.87;;;34.33;;
6093;SDS011;19964;42.060;24.700;2024-03-07T05:34:59;80.47;;;33.67;;
6093;SDS011;19964;42.060;24.700;2024-03-07T05:37:26;73.00;;;33.10;;
6093;SDS011;19964;42.060;24.700;2024-03-07T05:39:53;71.90;;;31.43;;
6093;SDS011;19964;42.060;24.700;2024-03-07T05:42:20;69.40;;;31.80;;
6093;SDS011;19964;42.060;24.700;2024-03-07T05:44:47;71.73;;;32.53;;
6093;SDS011;19964;42.060;24.700;2024-03-07T05:47:14;65.10;;;29.37;;
6093;SDS011;19964;42.060;24.700;2024-03-07T05:49:43;64.10;;;32.00;;
6093;SDS011;19964;42.060;24.700;2024-03-07T05:52:10;82.23;;;33.67;;
6093;SDS011;19964;42.060;24.700;2024-03-07T05:54:37;81.23;;;31.93;;
6093;SDS011;19964;42.060;24.700;2024-03-07T05:57:04;60.33;;;29.93;;
6093;SDS011;19964;42.060;24.700;2024-03-07T05:59:32;61.90;;;30.23;;
6093;SDS011;19964;42.060;24.700;2024-03-07T06:01:59;64.70;;;30.23;;
6093;SDS011;19964;42.060;24.700;2024-03-07T06:04:26;59.07;;;29.50;;
6093;SDS011;19964;42.060;24.700;2024-03-07T06:06:56;64.70;;;29.33;;
6093;SDS011;19964;42.060;24.700;2024-03-07T06:09:23;57.10;;;28.33;;
6093;SDS011;19964;42.060;24.700;2024-03-07T06:11:51;52.17;;;25.77;;
6093;SDS011;19964;42.060;24.700;2024-03-07T06:14:18;46.97;;;25.87;;
6093;SDS011;19964;42.060;24.700;2024-03-07T06:16:45;58.13;;;27.10;;
6093;SDS011;19964;42.060;24.700;2024-03-07T06:19:12;48.33;;;24.77;;
6093;SDS011;19964;42.060;24.700;2024-03-07T06:21:40;46.13;;;25.20;;
6093;SDS011;19964;42.060;24.700;2024-03-07T06:24:08;44.17;;;24.40;;
6093;SDS011;19964;42.060;24.700;2024-03-07T06:26:38;63.40;;;28.90;;
6093;SDS011;19964;42.060;24.700;2024-03-07T06:29:13;58.90;;;29.47;;
6093;SDS011;19964;42.060;24.700;2024-03-07T06:31:41;135.63;;;32.50;;
6093;SDS011;19964;42.060;24.700;2024-03-07T06:34:08;79.83;;;31.10;;
6093;SDS011;19964;42.060;24.700;2024-03-07T06:36:36;89.20;;;32.93;;
6093;SDS011;19964;42.060;24.700;2024-03-07T06:39:03;124.00;;;33.47;;
6093;SDS011;19964;42.060;24.700;2024-03-07T06:41:33;333.47;;;44.33;;
6093;SDS011;19964;42.060;24.700;2024-03-07T06:44:00;117.37;;;36.10;;
6093;SDS011;19964;42.060;24.700;2024-03-07T06:46:28;226.13;;;40.10;;
6093;SDS011;19964;42.060;24.700;2024-03-07T06:48:56;501.40;;;52.70;;
6093;SDS011;19964;42.060;24.700;2024-03-07T06:51:23;656.97;;;59.03;;
6093;SDS011;19964;42.060;24.700;2024-03-07T06:53:51;441.17;;;51.33;;
6093;SDS011;19964;42.060;24.700;2024-03-07T06:56:18;502.67;;;55.40;;
6093;SDS011;19964;42.060;24.700;2024-03-07T06:58:46;579.03;;;62.30;;
6093;SDS011;19964;42.060;24.700;2024-03-07T07:01:13;539.30;;;60.23;;
6093;SDS011;19964;42.060;24.700;2024-03-07T07:03:41;322.20;;;45.70;;
6093;SDS011;19964;42.060;24.700;2024-03-07T07:06:09;760.53;;;69.27;;
6093;SDS011;19964;42.060;24.700;2024-03-07T07:08:37;955.50;;;88.27;;
6093;SDS011;19964;42.060;24.700;2024-03-07T07:11:04;557.07;;;60.67;;
6093;SDS011;19964;42.060;24.700;2024-03-07T07:13:31;433.53;;;50.43;;
6093;SDS011;19964;42.060;24.700;2024-03-07T07:15:59;424.77;;;49.87;;
6093;SDS011;19964;42.060;24.700;2024-03-07T07:18:26;147.30;;;43.07;;
6093;SDS011;19964;42.060;24.700;2024-03-07T07:20:53;132.17;;;42.33;;
6093;SDS011;19964;42.060;24.700;2024-03-07T07:23:21;612.47;;;62.87;;
6093;SDS011;19964;42.060;24.700;2024-03-07T07:25:48;624.60;;;63.30;;
6093;SDS011;19964;42.060;24.700;2024-03-07T07:28:15;779.93;;;76.23;;
6093;SDS011;19964;42.060;24.700;2024-03-07T07:30:42;555.97;;;60.90;;
6093;SDS011;19964;42.060;24.700;2024-03-07T07:33:10;661.43;;;64.97;;
6093;SDS011;19964;42.060;24.700;2024-03-07T07:35:39;355.70;;;50.53;;
6093;SDS011;19964;42.060;24.700;2024-03-07T07:38:06;1432.83;;;130.47;;
6093;SDS011;19964;42.060;24.700;2024-03-07T07:40:35;522.57;;;59.67;;
6093;SDS011;19964;42.060;24.700;2024-03-07T07:43:02;500.83;;;60.27;;
6093;SDS011;19964;42.060;24.700;2024-03-07T07:45:29;479.27;;;56.80;;
6093;SDS011;19964;42.060;24.700;2024-03-07T07:47:57;692.53;;;68.53;;
6093;SDS011;19964;42.060;24.700;2024-03-07T07:50:26;635.63;;;63.90;;
6093;SDS011;19964;42.060;24.700;2024-03-07T07:52:54;588.80;;;67.43;;
6093;SDS011;19964;42.060;24.700;2024-03-07T07:55:23;304.00;;;48.97;;
6093;SDS011;19964;42.060;24.700;2024-03-07T07:57:51;290.30;;;48.10;;
6093;SDS011;19964;42.060;24.700;2024-03-07T08:00:20;782.37;;;79.53;;
6093;SDS011;19964;42.060;24.700;2024-03-07T08:02:49;319.03;;;48.87;;
6093;SDS011;19964;42.060;24.700;2024-03-07T08:05:17;595.70;;;59.33;;
6093;SDS011;19964;42.060;24.700;2024-03-07T08:07:46;878.07;;;82.50;;
6093;SDS011;19964;42.060;24.700;2024-03-07T08:10:14;419.83;;;55.27;;
6093;SDS011;19964;42.060;24.700;2024-03-07T08:12:41;454.57;;;53.07;;
6093;SDS011;19964;42.060;24.700;2024-03-07T08:15:09;462.33;;;55.23;;
6093;SDS011;19964;42.060;24.700;2024-03-07T08:17:39;543.67;;;62.43;;
6093;SDS011;19964;42.060;24.700;2024-03-07T08:20:08;407.27;;;52.97;;
6093;SDS011;19964;42.060;24.700;2024-03-07T08:22:37;473.43;;;65.33;;
6093;SDS011;19964;42.060;24.700;2024-03-07T08:25:07;294.07;;;51.13;;
6093;SDS011;19964;42.060;24.700;2024-03-07T08:27:35;151.63;;;46.40;;
6093;SDS011;19964;42.060;24.700;2024-03-07T08:30:03;630.07;;;71.80;;
6093;SDS011;19964;42.060;24.700;2024-03-07T08:32:32;475.83;;;57.53;;
6093;SDS011;19964;42.060;24.700;2024-03-07T08:35:02;365.50;;;56.83;;
6093;SDS011;19964;42.060;24.700;2024-03-07T08:37:32;356.63;;;51.70;;
6093;SDS011;19964;42.060;24.700;2024-03-07T08:40:00;479.37;;;61.20;;
6093;SDS011;19964;42.060;24.700;2024-03-07T08:42:30;532.60;;;66.27;;
6093;SDS011;19964;42.060;24.700;2024-03-07T08:44:59;184.23;;;47.20;;
6093;SDS011;19964;42.060;24.700;2024-03-07T08:47:26;307.73;;;53.53;;
6093;SDS011;19964;42.060;24.700;2024-03-07T08:49:53;338.90;;;52.30;;
6093;SDS011;19964;42.060;24.700;2024-03-07T08:52:21;392.93;;;58.07;;
6093;SDS011;19964;42.060;24.700;2024-03-07T08:54:47;525.33;;;64.07;;
6093;SDS011;19964;42.060;24.700;2024-03-07T08:57:14;332.03;;;54.40;;
6093;SDS011;19964;42.060;24.700;2024-03-07T08:59:44;290.00;;;48.40;;
6093;SDS011;19964;42.060;24.700;2024-03-07T09:02:11;246.90;;;49.30;;
6093;SDS011;19964;42.060;24.700;2024-03-07T09:04:38;244.23;;;50.10;;
6093;SDS011;19964;42.060;24.700;2024-03-07T09:07:06;143.67;;;47.50;;
6093;SDS011;19964;42.060;24.700;2024-03-07T09:09:33;150.40;;;45.43;;
6093;SDS011;19964;42.060;24.700;2024-03-07T09:12:00;102.63;;;42.00;;
6093;SDS011;19964;42.060;24.700;2024-03-07T09:14:28;111.50;;;43.30;;
6093;SDS011;19964;42.060;24.700;2024-03-07T09:16:57;113.43;;;43.37;;
6093;SDS011;19964;42.060;24.700;2024-03-07T09:19:24;101.80;;;39.63;;
6093;SDS011;19964;42.060;24.700;2024-03-07T09:21:51;100.50;;;39.97;;
6093;SDS011;19964;42.060;24.700;2024-03-07T09:24:18;72.47;;;33.40;;
6093;SDS011;19964;42.060;24.700;2024-03-07T09:26:47;67.93;;;33.40;;
6093;SDS011;19964;42.060;24.700;2024-03-07T09:29:15;67.97;;;32.83;;
6093;SDS011;19964;42.060;24.700;2024-03-07T09:31:43;67.97;;;29.60;;
6093;SDS011;19964;42.060;24.700;2024-03-07T09:34:12;67.77;;;31.27;;
6093;SDS011;19964;42.060;24.700;2024-03-07T09:36:40;64.07;;;30.30;;
6093;SDS011;19964;42.060;24.700;2024-03-07T09:39:07;57.80;;;29.33;;
6093;SDS011;19964;42.060;24.700;2024-03-07T09:41:34;64.53;;;30.07;;
6093;SDS011;19964;42.060;24.700;2024-03-07T09:44:02;57.27;;;28.57;;
6093;SDS011;19964;42.060;24.700;2024-03-07T09:46:30;54.90;;;27.20;;
6093;SDS011;19964;42.060;24.700;2024-03-07T09:48:58;58.00;;;29.03;;
6093;SDS011;19964;42.060;24.700;2024-03-07T09:51:28;53.67;;;28.23;;
6093;SDS011;19964;42.060;24.700;2024-03-07T09:53:56;50.63;;;26.63;;
6093;SDS011;19964;42.060;24.700;2024-03-07T09:56:24;54.73;;;26.63;;
6093;SDS011;19964;42.060;24.700;2024-03-07T09:58:58;54.97;;;28.10;;
6093;SDS011;19964;42.060;24.700;2024-03-07T10:01:27;48.93;;;25.83;;
6093;SDS011;19964;42.060;24.700;2024-03-07T10:03:57;50.90;;;25.97;;
6093;SDS011;19964;42.060;24.700;2024-03-07T10:06:28;49.80;;;26.87;;
6093;SDS011;19964;42.060;24.700;2024-03-07T10:08:55;53.07;;;26.47;;
6093;SDS011;19964;42.060;24.700;2024-03-07T10:11:24;48.30;;;25.77;;
6093;SDS011;19964;42.060;24.700;2024-03-07T10:13:52;45.30;;;24.90;;
6093;SDS011;19964;42.060;24.700;2024-03-07T10:16:20;44.47;;;23.97;;
6093;SDS011;19964;42.060;24.700;2024-03-07T10:18:48;44.23;;;24.47;;
6093;SDS011;19964;42.060;24.700;2024-03-07T10:21:18;42.47;;;24.70;;
6093;SDS011;19964;42.060;24.700;2024-03-07T10:23:46;45.13;;;24.70;;
6093;SDS011;19964;42.060;24.700;2024-03-07T10:26:15;49.63;;;23.57;;
6093;SDS011;19964;42.060;24.700;2024-03-07T10:28:42;39.90;;;21.37;;
6093;SDS011;19964;42.060;24.700;2024-03-07T10:31:09;38.27;;;22.07;;
6093;SDS011;19964;42.060;24.700;2024-03-07T10:33:40;34.13;;;20.50;;
6093;SDS011;19964;42.060;24.700;2024-03-07T10:36:09;39.07;;;21.93;;
6093;SDS011;19964;42.060;24.700;2024-03-07T10:38:39;44.93;;;25.47;;
6093;SDS011;19964;42.060;24.700;2024-03-07T10:41:07;52.37;;;30.27;;
6093;SDS011;19964;42.060;24.700;2024-03-07T10:43:36;56.53;;;30.13;;
6093;SDS011;19964;42.060;24.700;2024-03-07T10:46:07;57.13;;;31.13;;
6093;SDS011;19964;42.060;24.700;2024-03-07T10:48:38;63.07;;;32.87;;
6093;SDS011;19964;42.060;24.700;2024-03-07T10:51:06;65.03;;;33.40;;
6093;SDS011;19964;42.060;24.700;2024-03-07T10:53:42;68.27;;;34.13;;
6093;SDS011;19964;42.060;24.700;2024-03-07T10:56:24;138.60;;;39.23;;
6093;SDS011;19964;42.060;24.700;2024-03-07T10:59:01;83.13;;;33.73;;
6093;SDS011;19964;42.060;24.700;2024-03-07T11:01:39;113.43;;;37.90;;
6093;SDS011;19964;42.060;24.700;2024-03-07T11:04:15;130.87;;;38.20;;
6093;SDS011;19964;42.060;24.700;2024-03-07T11:06:43;85.17;;;38.00;;
6093;SDS011;19964;42.060;24.700;2024-03-07T11:09:11;91.77;;;37.67;;
6093;SDS011;19964;42.060;24.700;2024-03-07T11:11:41;84.43;;;37.80;;
6093;SDS011;19964;42.060;24.700;2024-03-07T11:14:09;78.47;;;38.60;;
6093;SDS011;19964;42.060;24.700;2024-03-07T11:16:38;79.10;;;38.07;;
6093;SDS011;19964;42.060;24.700;2024-03-07T11:22:03;82.97;;;39.13;;
6093;SDS011;19964;42.060;24.700;2024-03-07T11:24:39;95.03;;;39.03;;
6093;SDS011;19964;42.060;24.700;2024-03-07T11:27:09;80.90;;;37.70;;
6093;SDS011;19964;42.060;24.700;2024-03-07T11:29:39;81.53;;;38.70;;
6093;SDS011;19964;42.060;24.700;2024-03-07T11:32:08;89.53;;;38.97;;
6093;SDS011;19964;42.060;24.700;2024-03-07T11:34:37;79.27;;;39.60;;
6093;SDS011;19964;42.060;24.700;2024-03-07T11:37:06;85.53;;;40.23;;
6093;SDS011;19964;42.060;24.700;2024-03-07T11:39:42;88.17;;;40.07;;
6093;SDS011;19964;42.060;24.700;2024-03-07T11:42:24;90.33;;;41.00;;
6093;SDS011;19964;42.060;24.700;2024-03-07T11:44:52;86.43;;;39.93;;
6093;SDS011;19964;42.060;24.700;2024-03-07T11:47:21;86.63;;;41.07;;
6093;SDS011;19964;42.060;24.700;2024-03-07T11:49:49;92.27;;;40.33;;
6093;SDS011;19964;42.060;24.700;2024-03-07T11:52:17;96.73;;;42.00;;
6093;SDS011;19964;42.060;24.700;2024-03-07T11:54:44;100.50;;;41.90;;
6093;SDS011;19964;42.060;24.700;2024-03-07T11:57:15;88.40;;;40.67;;
6093;SDS011;19964;42.060;24.700;2024-03-07T11:59:46;78.97;;;38.70;;
6093;SDS011;19964;42.060;24.700;2024-03-07T12:02:17;81.07;;;38.00;;
6093;SDS011;19964;42.060;24.700;2024-03-07T12:04:46;80.80;;;36.47;;
6093;SDS011;19964;42.060;24.700;2024-03-07T12:07:13;82.70;;;38.77;;
6093;SDS011;19964;42.060;24.700;2024-03-07T12:09:42;76.37;;;38.50;;
6093;SDS011;19964;42.060;24.700;2024-03-07T12:12:15;86.03;;;38.93;;
6093;SDS011;19964;42.060;24.700;2024-03-07T12:14:43;76.53;;;36.37;;
6093;SDS011;19964;42.060;24.700;2024-03-07T12:17:12;67.03;;;34.23;;
6093;SDS011;19964;42.060;24.700;2024-03-07T12:19:40;59.13;;;31.60;;
6093;SDS011;19964;42.060;24.700;2024-03-07T12:22:08;70.53;;;33.87;;
6093;SDS011;19964;42.060;24.700;2024-03-07T12:24:38;63.60;;;32.10;;
6093;SDS011;19964;42.060;24.700;2024-03-07T12:27:07;61.57;;;31.97;;
6093;SDS011;19964;42.060;24.700;2024-03-07T12:29:35;57.63;;;31.00;;
6093;SDS011;19964;42.060;24.700;2024-03-07T12:32:04;58.17;;;31.80;;
6093;SDS011;19964;42.060;24.700;2024-03-07T12:34:34;64.97;;;34.33;;
6093;SDS011;19964;42.060;24.700;2024-03-07T12:37:06;72.60;;;35.73;;
6093;SDS011;19964;42.060;24.700;2024-03-07T12:39:33;69.97;;;36.53;;
6093;SDS011;19964;42.060;24.700;2024-03-07T12:42:05;62.37;;;32.60;;
6093;SDS011;19964;42.060;24.700;2024-03-07T12:44:39;68.77;;;35.30;;
6093;SDS011;19964;42.060;24.700;2024-03-07T12:47:08;64.77;;;33.97;;
6093;SDS011;19964;42.060;24.700;2024-03-07T12:49:37;58.40;;;32.07;;
6093;SDS011;19964;42.060;24.700;2024-03-07T12:52:05;60.87;;;34.27;;
6093;SDS011;19964;42.060;24.700;2024-03-07T12:54:34;61.50;;;32.23;;
6093;SDS011;19964;42.060;24.700;2024-03-07T12:57:02;57.67;;;33.30;;
6093;SDS011;19964;42.060;24.700;2024-03-07T12:59:30;60.73;;;33.83;;
6093;SDS011;19964;42.060;24.700;2024-03-07T13:01:58;63.20;;;34.30;;
6093;SDS011;19964;42.060;24.700;2024-03-07T13:04:25;63.07;;;33.27;;
6093;SDS011;19964;42.060;24.700;2024-03-07T13:06:54;62.03;;;32.30;;
6093;SDS011;19964;42.060;24.700;2024-03-07T13:09:25;51.43;;;29.93;;
6093;SDS011;19964;42.060;24.700;2024-03-07T13:11:53;55.07;;;29.20;;
6093;SDS011;19964;42.060;24.700;2024-03-07T13:14:20;50.83;;;29.07;;
6093;SDS011;19964;42.060;24.700;2024-03-07T13:16:47;54.23;;;27.60;;
6093;SDS011;19964;42.060;24.700;2024-03-07T13:19:15;51.53;;;27.87;;
6093;SDS011;19964;42.060;24.700;2024-03-07T13:21:46;54.03;;;28.73;;
6093;SDS011;19964;42.060;24.700;2024-03-07T13:24:15;47.47;;;27.43;;
6093;SDS011;19964;42.060;24.700;2024-03-07T13:26:42;46.80;;;26.67;;
6093;SDS011;19964;42.060;24.700;2024-03-07T13:29:09;49.40;;;26.73;;
6093;SDS011;19964;42.060;24.700;2024-03-07T13:31:37;46.10;;;25.60;;
6093;SDS011;19964;42.060;24.700;2024-03-07T13:34:05;45.83;;;25.03;;
6093;SDS011;19964;42.060;24.700;2024-03-07T13:36:38;48.57;;;29.50;;
6093;SDS011;19964;42.060;24.700;2024-03-07T13:39:06;53.00;;;29.20;;
6093;SDS011;19964;42.060;24.700;2024-03-07T13:41:37;52.40;;;29.67;;
6093;SDS011;19964;42.060;24.700;2024-03-07T13:44:05;52.67;;;28.80;;
6093;SDS011;19964;42.060;24.700;2024-03-07T13:46:32;57.53;;;30.33;;
6093;SDS011;19964;42.060;24.700;2024-03-07T13:48:59;63.43;;;32.53;;
6093;SDS011;19964;42.060;24.700;2024-03-07T13:51:32;54.07;;;32.47;;
6093;SDS011;19964;42.060;24.700;2024-03-07T13:54:01;65.20;;;32.77;;
6093;SDS011;19964;42.060;24.700;2024-03-07T13:56:54;55.90;;;30.97;;
6093;SDS011;19964;42.060;24.700;2024-03-07T13:59:44;55.40;;;31.40;;
6093;SDS011;19964;42.060;24.700;2024-03-07T14:02:41;53.37;;;30.50;;
6093;SDS011;19964;42.060;24.700;2024-03-07T14:05:34;53.70;;;28.70;;
6093;SDS011;19964;42.060;24.700;2024-03-07T14:17:48;53.27;;;28.90;;
6093;SDS011;19964;42.060;24.700;2024-03-07T14:20:37;53.33;;;28.07;;
6093;SDS011;19964;42.060;24.700;2024-03-07T14:23:25;53.10;;;28.50;;
6093;SDS011;19964;42.060;24.700;2024-03-07T14:29:16;59.80;;;32.77;;
6093;SDS011;19964;42.060;24.700;2024-03-07T14:31:52;67.17;;;36.43;;
6093;SDS011;19964;42.060;24.700;2024-03-07T14:34:33;68.63;;;37.60;;
6093;SDS011;19964;42.060;24.700;2024-03-07T14:37:17;71.43;;;37.70;;
6093;SDS011;19964;42.060;24.700;2024-03-07T14:39:48;69.37;;;37.23;;
6093;SDS011;19964;42.060;24.700;2024-03-07T14:42:17;78.57;;;38.83;;